createdAt,value
2019-04-23T00:04:12.625Z,6.83
2019-04-23T00:07:07.944Z,7.13
2019-04-23T00:09:34.115Z,7.27
2019-04-23T00:12:11.690Z,7.47
2019-04-23T00:15:03.641Z,7.20
2019-04-23T00:17:24.876Z,6.90
2019-04-23T00:20:08.795Z,7.07
2019-04-23T00:22:51.917Z,7.00
2019-04-23T00:25:53.674Z,6.93
2019-04-23T00:28:26.445Z,6.60
2019-04-23T00:31:06.810Z,6.70
2019-04-23T00:33:34.290Z,6.73
2019-04-23T00:36:10.775Z,7.30
2019-04-23T00:38:45.484Z,6.57
2019-04-23T00:41:24.551Z,6.90
2019-04-23T00:46:35.108Z,7.30
2019-04-23T00:49:13.642Z,7.00
2019-04-23T00:51:43.106Z,6.87
2019-04-23T00:54:26.377Z,7.27
2019-04-23T00:57:59.337Z,6.47
2019-04-23T01:03:21.793Z,6.90
2019-04-23T01:06:04.595Z,7.17
2019-04-23T01:08:38.785Z,6.63
2019-04-23T01:11:08.315Z,6.90
2019-04-23T01:14:01.023Z,7.23
2019-04-23T01:16:32.971Z,6.70
2019-04-23T01:19:18.882Z,6.97
2019-04-23T01:21:32.709Z,7.07
2019-04-23T01:24:21.929Z,7.20
2019-04-23T01:30:31.584Z,7.10
2019-04-23T01:33:12.220Z,7.57
2019-04-23T01:35:39.665Z,7.27
2019-04-23T01:38:33.779Z,6.93
2019-04-23T01:41:13.142Z,6.60
2019-04-23T01:43:47.649Z,6.77
2019-04-23T01:46:28.929Z,7.60
2019-04-23T01:48:58.315Z,7.10
2019-04-23T01:51:44.693Z,7.50
2019-04-23T01:54:13.360Z,7.10
2019-04-23T01:56:43.456Z,7.60
2019-04-23T01:59:38.650Z,7.10
2019-04-23T02:01:58.692Z,7.10
2019-04-23T02:04:34.875Z,7.00
2019-04-23T02:07:27.616Z,7.00
2019-04-23T02:09:55.535Z,7.20
2019-04-23T02:12:33.075Z,7.50
2019-04-23T02:15:02.276Z,7.60
2019-04-23T02:17:46.073Z,7.20
2019-04-23T02:20:33.176Z,7.13
2019-04-23T02:23:44.626Z,7.10
2019-04-23T02:26:36.875Z,7.00
2019-04-23T02:29:26.590Z,7.30
2019-04-23T02:32:03.569Z,7.10
2019-04-23T02:35:02.364Z,7.30
2019-04-23T02:37:22.769Z,7.47
2019-04-23T02:45:02.720Z,7.70
2019-04-23T02:48:05.543Z,7.53
2019-04-23T02:50:31.534Z,7.43
2019-04-23T02:52:58.174Z,7.30
2019-04-23T02:55:38.502Z,7.73
2019-04-23T02:58:11.154Z,7.60
2019-04-23T03:03:42.225Z,8.23
2019-04-23T03:06:21.807Z,8.50
2019-04-23T03:09:09.396Z,7.90
2019-04-23T03:11:48.388Z,8.00
2019-04-23T03:14:27.265Z,9.00
2019-04-23T03:20:15.810Z,8.53
2019-04-23T03:22:56.160Z,8.67
2019-04-23T03:25:35.689Z,9.40
2019-04-23T03:28:27.364Z,8.83
2019-04-23T03:36:17.314Z,9.33
2019-04-23T03:41:29.991Z,9.27
2019-04-23T03:44:18.577Z,8.93
2019-04-23T03:46:46.744Z,9.50
2019-04-23T03:49:27.113Z,9.57
2019-04-23T03:52:16.028Z,9.30
2019-04-23T03:57:38.395Z,10.00
2019-04-23T04:05:45.437Z,9.50
2019-04-23T04:08:20.354Z,9.53
2019-04-23T04:11:10.924Z,9.23
2019-04-23T04:13:30.982Z,9.80
2019-04-23T04:16:09.490Z,10.10
2019-04-23T04:21:38.743Z,9.87
2019-04-23T04:24:27.473Z,10.17
2019-04-23T04:27:10.194Z,10.00
2019-04-23T04:32:09.980Z,10.40
2019-04-23T04:40:20.785Z,10.50
2019-04-23T04:43:09.246Z,10.60
2019-04-23T04:45:57.690Z,9.93
2019-04-23T04:48:27.223Z,10.57
2019-04-23T04:51:24.255Z,10.70
2019-04-23T05:01:23.153Z,10.50
2019-04-23T05:04:18.231Z,10.30
2019-04-23T05:07:06.200Z,10.03
2019-04-23T05:09:31.809Z,10.27
2019-04-23T05:12:16.245Z,10.70
2019-04-23T05:14:54.492Z,10.77
2019-04-23T05:18:08.335Z,10.90
2019-04-23T05:20:46.871Z,11.00
2019-04-23T05:23:26.984Z,10.67
2019-04-23T05:25:44.962Z,11.13
2019-04-23T05:28:40.825Z,9.87
2019-04-23T05:31:14.112Z,9.97
2019-04-23T05:33:49.472Z,11.30
2019-04-23T05:36:35.615Z,10.83
2019-04-23T05:42:02.083Z,10.50
2019-04-23T05:45:11.155Z,11.33
2019-04-23T05:47:29.404Z,11.30
2019-04-23T05:50:09.958Z,10.33
2019-04-23T05:58:16.566Z,10.00
2019-04-23T06:00:56.893Z,10.67
2019-04-23T06:03:30.945Z,10.87
2019-04-23T06:06:27.523Z,10.37
2019-04-23T06:11:51.215Z,10.13
2019-04-23T06:14:18.724Z,10.43
2019-04-23T06:17:07.949Z,10.17
2019-04-23T06:19:43.174Z,10.13
2019-04-23T06:25:30.945Z,9.80
2019-04-23T06:27:39.371Z,10.03
2019-04-23T06:30:22.802Z,10.67
2019-04-23T06:33:11.648Z,9.27
2019-04-23T06:35:39.514Z,10.20
2019-04-23T06:38:39.181Z,10.40
2019-04-23T06:40:51.943Z,9.93
2019-04-23T06:43:38.770Z,9.47
2019-04-23T06:46:39.575Z,10.30
2019-04-23T06:49:13.250Z,10.13
2019-04-23T06:52:00.453Z,9.83
2019-04-23T06:54:42.404Z,9.60
2019-04-23T06:57:22.298Z,10.10
2019-04-23T07:00:06.259Z,9.80
2019-04-23T07:05:15.914Z,9.40
2019-04-23T07:07:54.695Z,9.23
2019-04-23T07:10:25.252Z,9.30
2019-04-23T07:13:06.346Z,9.53
2019-04-23T07:16:01.192Z,9.77
2019-04-23T07:18:31.551Z,9.70
2019-04-23T07:21:15.394Z,9.60
2019-04-23T07:23:53.917Z,9.20
2019-04-23T07:29:14.310Z,9.27
2019-04-23T07:31:55.788Z,8.63
2019-04-23T07:34:23.172Z,8.83
2019-04-23T07:37:05.105Z,9.37
2019-04-23T07:42:50.699Z,9.37
2019-04-23T07:48:13.275Z,8.87
2019-04-23T07:53:48.232Z,9.10
2019-04-23T07:58:34.753Z,8.27
2019-04-23T08:01:13.159Z,8.73
2019-04-23T08:03:48.666Z,8.53
2019-04-23T08:06:22.011Z,8.63
2019-04-23T08:08:56.305Z,9.20
2019-04-23T08:11:49.292Z,8.30
2019-04-23T08:14:22.431Z,8.47
2019-04-23T08:17:00.706Z,8.67
2019-04-23T08:19:49.420Z,8.67
2019-04-23T08:22:28.729Z,8.10
2019-04-23T08:25:26.329Z,8.77
2019-04-23T08:27:42.163Z,8.30
2019-04-23T08:30:17.721Z,8.47
2019-04-23T08:32:57.313Z,8.60
2019-04-23T08:35:35.886Z,8.73
2019-04-23T08:38:25.969Z,8.17
2019-04-23T08:41:16.223Z,8.10
2019-04-23T08:49:36.208Z,7.60
2019-04-23T08:52:09.851Z,7.40
2019-04-23T08:54:48.261Z,7.93
2019-04-23T08:57:17.119Z,8.10
2019-04-23T08:59:50.234Z,7.63
2019-04-23T09:05:09.556Z,7.23
2019-04-23T09:07:46.822Z,7.77
2019-04-23T09:10:19.723Z,7.60
2019-04-23T09:12:58.723Z,7.50
2019-04-23T09:15:37.165Z,7.30
2019-04-23T09:18:17.423Z,7.50
2019-04-23T09:20:55.012Z,6.80
2019-04-23T09:23:40.906Z,6.90
2019-04-23T09:26:02.402Z,6.90
2019-04-23T09:28:51.655Z,7.60
2019-04-23T09:32:11.212Z,6.87
2019-04-23T09:34:46.619Z,6.60
2019-04-23T09:37:54.063Z,6.40
2019-04-23T09:47:00.712Z,6.37
2019-04-23T09:49:50.097Z,6.40
2019-04-23T09:52:27.580Z,6.30
2019-04-23T09:55:04.724Z,6.63
2019-04-23T09:57:52.301Z,6.33
2019-04-23T10:02:45.237Z,6.70
2019-04-23T10:05:13.809Z,7.30
2019-04-23T10:07:49.471Z,6.40
2019-04-23T10:10:16.439Z,6.20
2019-04-23T10:12:50.218Z,6.43
2019-04-23T10:15:30.834Z,6.13
2019-04-23T10:18:02.411Z,5.97
2019-04-23T10:20:38.399Z,6.20
2019-04-23T10:23:12.576Z,6.60
2019-04-23T10:25:47.871Z,7.20
2019-04-23T10:28:44.581Z,6.67
2019-04-23T10:31:18.733Z,6.07
2019-04-23T10:34:05.978Z,6.00
2019-04-23T10:36:40.659Z,6.23
2019-04-23T10:39:21.308Z,5.43
2019-04-23T10:41:52.229Z,5.70
2019-04-23T10:44:43.890Z,6.30
2019-04-23T10:48:12.391Z,6.10
2019-04-23T10:50:51.398Z,6.60
2019-04-23T10:53:32.867Z,6.13
2019-04-23T10:56:28.781Z,6.90
2019-04-23T10:59:27.200Z,6.30
2019-04-23T11:04:54.237Z,6.60
2019-04-23T11:10:11.563Z,6.50
2019-04-23T11:12:52.230Z,6.37
2019-04-23T11:15:47.403Z,6.07
2019-04-23T11:18:40.183Z,6.20
2019-04-23T11:21:09.623Z,5.90
2019-04-23T11:26:28.457Z,6.87
2019-04-23T11:29:19.555Z,7.00
2019-04-23T11:31:48.760Z,6.23
2019-04-23T11:34:26.615Z,6.80
2019-04-23T11:39:21.692Z,5.93
2019-04-23T11:42:11.638Z,5.60
2019-04-23T11:44:38.963Z,6.07
2019-04-23T11:47:27.398Z,5.93
2019-04-23T11:54:53.545Z,6.27
2019-04-23T11:57:46.282Z,5.97
2019-04-23T12:03:17.984Z,6.00
2019-04-23T12:06:19.973Z,6.10
2019-04-23T12:09:18.027Z,6.83
2019-04-23T12:17:33.140Z,6.30
2019-04-23T12:20:23.356Z,5.57
2019-04-23T12:23:04.249Z,6.03
2019-04-23T12:25:30.999Z,5.53
2019-04-23T12:27:59.560Z,6.57
2019-04-23T12:30:48.620Z,5.77
2019-04-23T12:33:20.363Z,5.73
2019-04-23T12:35:43.389Z,5.90
2019-04-23T12:38:40.649Z,5.73
2019-04-23T12:41:29.933Z,6.70
2019-04-23T12:44:14.868Z,6.13
2019-04-23T12:47:18.760Z,4.93
2019-04-23T12:50:18.860Z,6.00
2019-04-23T12:58:01.201Z,5.93
2019-04-23T13:00:48.255Z,5.60
2019-04-23T13:03:25.981Z,5.23
2019-04-23T13:06:03.561Z,6.50
2019-04-23T13:08:52.047Z,6.10
2019-04-23T13:11:33.183Z,6.47
2019-04-23T13:14:13.794Z,6.03
2019-04-23T13:16:56.777Z,5.97
2019-04-23T13:19:33.909Z,6.27
2019-04-23T13:22:19.642Z,6.30
2019-04-23T13:24:48.932Z,5.93
2019-04-23T13:27:29.043Z,6.23
2019-04-23T13:30:17.226Z,6.43
2019-04-23T13:32:48.800Z,6.10
2019-04-23T13:38:09.248Z,6.30
2019-04-23T13:40:57.111Z,6.50
2019-04-23T13:43:36.302Z,6.20
2019-04-23T13:46:06.925Z,6.50
2019-04-23T13:48:42.062Z,6.20
2019-04-23T13:51:28.269Z,6.63
2019-04-23T13:53:53.450Z,6.03
2019-04-23T14:02:08.976Z,6.50
2019-04-23T14:05:12.408Z,6.13
2019-04-23T14:13:27.926Z,6.00
2019-04-23T14:15:54.040Z,6.10
2019-04-23T14:18:56.169Z,6.10
2019-04-23T14:21:14.132Z,6.53
2019-04-23T14:28:59.589Z,6.20
2019-04-23T14:31:57.514Z,6.73
2019-04-23T14:34:35.404Z,6.67
2019-04-23T14:37:16.195Z,6.47
2019-04-23T14:39:47.646Z,6.17
2019-04-23T14:42:30.804Z,6.70
2019-04-23T14:45:13.447Z,6.67
2019-04-23T14:47:40.241Z,7.30
2019-04-23T14:53:16.141Z,6.13
2019-04-23T14:56:00.277Z,7.13
2019-04-23T14:58:36.060Z,6.70
2019-04-23T15:03:46.610Z,7.30
2019-04-23T15:09:18.887Z,7.03
2019-04-23T15:11:35.726Z,7.00
2019-04-23T15:14:17.536Z,8.13
2019-04-23T15:17:07.161Z,7.10
2019-04-23T15:22:56.186Z,7.40
2019-04-23T15:25:32.120Z,7.10
2019-04-23T15:28:06.676Z,7.13
2019-04-23T15:30:41.863Z,6.93
2019-04-23T15:36:09.466Z,8.70
2019-04-23T15:41:30.785Z,7.40
2019-04-23T15:43:57.398Z,7.10
2019-04-23T15:49:26.890Z,8.07
2019-04-23T15:52:10.833Z,7.83
2019-04-23T15:54:50.851Z,7.70
2019-04-23T15:57:43.233Z,7.80
2019-04-23T15:59:54.627Z,7.87
2019-04-23T16:02:05.022Z,8.70
2019-04-23T16:04:39.942Z,8.73
2019-04-23T16:07:31.836Z,8.97
2019-04-23T16:13:13.585Z,7.93
2019-04-23T16:15:52.461Z,9.00
2019-04-23T16:18:42.259Z,7.90
2019-04-23T16:21:28.995Z,8.33
2019-04-23T16:23:52.874Z,8.77
2019-04-23T16:26:30.098Z,7.97
2019-04-23T16:31:57.368Z,8.20
2019-04-23T16:34:44.940Z,8.37
2019-04-23T16:37:27.105Z,8.57
2019-04-23T16:40:08.519Z,8.70
2019-04-23T16:42:29.945Z,9.00
2019-04-23T16:45:10.986Z,8.80
2019-04-23T16:47:46.703Z,8.40
2019-04-23T16:50:18.295Z,8.87
2019-04-23T16:55:52.318Z,8.77
2019-04-23T16:58:28.079Z,9.83
2019-04-23T17:03:31.885Z,8.30
2019-04-23T17:06:10.737Z,11.43
2019-04-23T17:08:59.823Z,8.97
2019-04-23T17:16:58.352Z,9.13
2019-04-23T17:19:40.899Z,8.47
2019-04-23T17:22:17.555Z,8.13
2019-04-23T17:25:10.885Z,8.50
2019-04-23T17:27:48.893Z,8.67
2019-04-23T17:30:34.179Z,9.07
2019-04-23T17:36:22.914Z,8.70
2019-04-23T17:42:09.208Z,8.73
2019-04-23T17:47:14.029Z,9.07
2019-04-23T17:50:13.391Z,9.00
2019-04-23T17:52:52.657Z,9.47
2019-04-23T17:55:31.393Z,8.47
2019-04-23T17:58:10.759Z,8.60
2019-04-23T18:00:57.136Z,8.87
2019-04-23T18:12:12.967Z,9.30
2019-04-23T18:15:00.749Z,8.93
2019-04-23T18:17:45.195Z,8.63
2019-04-23T18:20:23.043Z,8.47
2019-04-23T18:23:00.716Z,8.90
2019-04-23T18:25:39.509Z,8.63
2019-04-23T18:28:08.463Z,8.80
2019-04-23T18:31:12.749Z,8.57
2019-04-23T18:34:08.705Z,9.03
2019-04-23T18:36:41.617Z,9.27
2019-04-23T18:39:23.862Z,9.10
2019-04-23T18:42:03.995Z,8.57
2019-04-23T18:44:38.329Z,8.53
2019-04-23T18:47:07.087Z,8.63
2019-04-23T18:49:55.906Z,9.63
2019-04-23T18:52:39.443Z,9.07
2019-04-23T18:55:06.757Z,8.97
2019-04-23T18:57:48.501Z,9.17
2019-04-23T19:00:24.906Z,9.83
2019-04-23T19:03:11.260Z,9.00
2019-04-23T19:06:10.668Z,9.17
2019-04-23T19:12:01.297Z,9.47
2019-04-23T19:14:32.938Z,10.50
2019-04-23T19:17:32.568Z,10.40
2019-04-23T19:19:40.616Z,9.63
2019-04-23T19:22:28.098Z,9.60
2019-04-23T19:24:45.322Z,10.37
2019-04-23T19:27:31.619Z,9.90
2019-04-23T19:30:13.723Z,10.30
2019-04-23T19:33:05.846Z,10.00
2019-04-23T19:38:13.436Z,10.57
2019-04-23T19:40:52.107Z,10.53
2019-04-23T19:43:37.153Z,10.80
2019-04-23T19:46:07.829Z,10.37
2019-04-23T19:48:48.527Z,11.30
2019-04-23T19:51:33.922Z,11.07
2019-04-23T19:56:51.322Z,11.43
2019-04-23T19:59:23.466Z,11.13
2019-04-23T20:04:28.932Z,10.70
2019-04-23T20:12:21.471Z,11.03
2019-04-23T20:14:59.951Z,10.80
2019-04-23T20:20:06.219Z,10.97
2019-04-23T20:22:52.126Z,11.47
2019-04-23T20:28:14.869Z,11.30
2019-04-23T20:30:54.439Z,10.97
2019-04-23T20:31:39.362Z,11.30
2019-04-23T20:36:17.580Z,10.37
2019-04-23T20:38:57.674Z,10.57
2019-04-23T20:42:07.883Z,11.67
2019-04-23T20:44:47.215Z,11.30
2019-04-23T20:47:06.249Z,11.27
2019-04-23T20:49:42.730Z,10.87
2019-04-23T20:52:04.808Z,11.30
2019-04-23T20:55:00.064Z,10.93
2019-04-23T20:57:43.937Z,11.40
2019-04-23T21:08:11.731Z,11.40
2019-04-23T21:13:27.522Z,11.13
2019-04-23T21:15:54.691Z,11.83
2019-04-23T21:18:33.054Z,11.47
2019-04-23T21:21:05.055Z,11.90
2019-04-23T21:23:44.151Z,11.60
2019-04-23T21:26:08.549Z,11.80
2019-04-23T21:28:54.254Z,11.20
2019-04-23T21:31:48.030Z,11.50
2019-04-23T21:34:37.896Z,11.07
2019-04-23T21:37:06.602Z,12.10
2019-04-23T21:42:57.286Z,12.03
2019-04-23T21:45:30.489Z,12.00
2019-04-23T21:50:57.818Z,12.27
2019-04-23T21:53:33.145Z,12.37
2019-04-23T21:56:08.640Z,11.93
2019-04-23T21:59:01.395Z,11.40
2019-04-23T22:01:37.019Z,11.90
2019-04-23T22:04:17.697Z,11.83
2019-04-23T22:06:52.885Z,11.40
2019-04-23T22:12:14.900Z,11.60
2019-04-23T22:15:03.058Z,11.50
2019-04-23T22:17:41.232Z,11.93
2019-04-23T22:20:26.080Z,12.30
2019-04-23T22:25:45.153Z,11.57
2019-04-23T22:28:16.460Z,12.17
2019-04-23T22:31:14.924Z,12.57
2019-04-23T22:38:35.984Z,12.97
2019-04-23T22:44:05.105Z,13.07
2019-04-23T22:46:50.187Z,14.03
2019-04-23T22:52:09.925Z,13.57
2019-04-23T22:54:49.476Z,13.50
2019-04-23T22:57:56.496Z,13.20
2019-04-23T23:03:27.700Z,13.10
2019-04-23T23:06:12.571Z,14.47
2019-04-23T23:11:11.914Z,14.10
2019-04-23T23:14:10.151Z,14.03
2019-04-23T23:16:42.096Z,15.10
2019-04-23T23:19:56.441Z,13.97
2019-04-23T23:22:11.841Z,12.80
2019-04-23T23:25:09.838Z,13.33
2019-04-23T23:27:39.732Z,12.77
2019-04-23T23:30:19.503Z,12.60
2019-04-23T23:33:17.279Z,12.90
2019-04-23T23:36:08.459Z,13.03
2019-04-23T23:38:41.654Z,13.20
2019-04-23T23:41:20.730Z,12.87
2019-04-23T23:44:07.607Z,11.70
2019-04-23T23:46:27.903Z,12.40
2019-04-23T23:51:49.472Z,11.27
2019-04-23T23:59:41.924Z,11.17
